createdAt,value
2023-03-04T00:01:37.324Z,99607.37
2023-03-04T00:04:10.559Z,99599.25
2023-03-04T00:06:42.836Z,99599.34
2023-03-04T00:09:15.950Z,99593.98
2023-03-04T00:11:49.337Z,99587.58
2023-03-04T00:14:21.848Z,99584.13
2023-03-04T00:16:54.157Z,99580.13
2023-03-04T00:19:26.461Z,99580.92
2023-03-04T00:21:58.897Z,99575.66
2023-03-04T00:24:32.591Z,99580.70
2023-03-04T00:27:05.071Z,99574.11
2023-03-04T00:29:37.804Z,99575.77
2023-03-04T00:32:11.715Z,99575.09
2023-03-04T00:34:44.179Z,99572.14
2023-03-04T00:37:16.815Z,99572.52
2023-03-04T00:39:50.192Z,99576.90
2023-03-04T00:42:23.283Z,99572.70
2023-03-04T00:44:55.981Z,99573.57
2023-03-04T00:47:28.489Z,99564.31
2023-03-04T00:50:01.958Z,99562.38
2023-03-04T00:52:34.973Z,99563.71
2023-03-04T00:55:09.447Z,99562.56
2023-03-04T00:57:42.648Z,99559.52
2023-03-04T01:00:15.749Z,99550.75
2023-03-04T01:02:48.433Z,99544.06
2023-03-04T01:05:21.613Z,99543.56
2023-03-04T01:07:54.178Z,99544.06
2023-03-04T01:10:27.745Z,99533.84
2023-03-04T01:13:00.657Z,99537.94
2023-03-04T01:15:34.632Z,99531.45
2023-03-04T01:18:07.837Z,99534.31
2023-03-04T01:20:40.747Z,99522.11
2023-03-04T01:23:13.047Z,99523.16
2023-03-04T01:25:46.684Z,99517.23
2023-03-04T01:28:19.399Z,99512.95
2023-03-04T01:30:53.636Z,99515.25
2023-03-04T01:33:26.190Z,99516.77
2023-03-04T01:35:59.150Z,99513.14
2023-03-04T01:38:31.626Z,99509.22
2023-03-04T01:41:04.310Z,99513.33
2023-03-04T01:43:38.623Z,99511.34
2023-03-04T01:46:14.589Z,99519.23
2023-03-04T01:48:47.803Z,99509.14
2023-03-04T01:51:21.221Z,99501.69
2023-03-04T01:53:55.095Z,99501.03
2023-03-04T01:56:31.242Z,99491.37
2023-03-04T01:59:19.017Z,99490.32
2023-03-04T02:01:57.829Z,99496.72
2023-03-04T02:04:34.515Z,99491.75
2023-03-04T02:07:07.952Z,99482.81
2023-03-04T02:09:41.231Z,99488.43
2023-03-04T02:12:13.818Z,99493.86
2023-03-04T02:14:46.579Z,99490.60
2023-03-04T02:17:21.270Z,99488.12
2023-03-04T02:20:28.313Z,99486.22
2023-03-04T02:23:14.314Z,99488.12
2023-03-04T02:26:06.432Z,99485.72
2023-03-04T02:28:38.951Z,99476.56
2023-03-04T02:31:28.203Z,99482.21
2023-03-04T02:34:06.900Z,99480.47
2023-03-04T02:36:40.113Z,99473.61
2023-03-04T02:39:28.069Z,99470.16
2023-03-04T02:42:01.112Z,99466.38
2023-03-04T02:44:38.012Z,99445.30
2023-03-04T02:47:12.423Z,99437.19
2023-03-04T02:49:45.558Z,99430.80
2023-03-04T02:52:25.445Z,99434.02
2023-03-04T02:54:58.350Z,99429.55
2023-03-04T02:57:30.957Z,99434.98
2023-03-04T03:00:03.485Z,99421.36
2023-03-04T03:02:36.666Z,99427.66
2023-03-04T03:05:09.677Z,99423.56
2023-03-04T03:07:42.130Z,99424.03
2023-03-04T03:10:15.664Z,99427.66
2023-03-04T03:12:48.486Z,99421.36
2023-03-04T03:15:22.026Z,99418.69
2023-03-04T03:17:55.172Z,99421.73
2023-03-04T03:20:27.938Z,99416.39
2023-03-04T03:23:00.789Z,99412.66
2023-03-04T03:25:33.438Z,99413.34
2023-03-04T03:28:06.031Z,99408.29
2023-03-04T03:30:39.145Z,99409.44
2023-03-04T03:33:11.797Z,99406.11
2023-03-04T03:35:45.570Z,99397.69
2023-03-04T03:38:18.620Z,99403.62
2023-03-04T03:40:51.781Z,99401.63
2023-03-04T03:43:24.398Z,99400.20
2023-03-04T03:45:57.101Z,99398.46
2023-03-04T03:48:30.390Z,99391.59
2023-03-04T03:51:23.944Z,99388.55
2023-03-04T03:53:57.451Z,99380.34
2023-03-04T03:56:30.020Z,99382.52
2023-03-04T03:59:02.715Z,99368.97
2023-03-04T04:01:35.444Z,99373.75
2023-03-04T04:04:08.021Z,99360.40
2023-03-04T04:06:40.643Z,99365.73
2023-03-04T04:09:13.077Z,99368.23
2023-03-04T04:11:46.290Z,99373.17
2023-03-04T04:14:19.205Z,99359.72
2023-03-04T04:16:52.430Z,99343.03
2023-03-04T04:19:25.038Z,99347.41
2023-03-04T04:21:58.213Z,99337.77
2023-03-04T04:24:30.980Z,99337.77
2023-03-04T04:27:04.679Z,99335.97
2023-03-04T04:29:37.872Z,99330.53
2023-03-04T04:32:12.207Z,99332.91
2023-03-04T04:34:45.226Z,99312.27
2023-03-04T04:37:17.630Z,99310.34
2023-03-04T04:39:51.965Z,99284.45
2023-03-04T04:42:24.920Z,99284.89
2023-03-04T04:44:58.127Z,99277.70
2023-03-04T04:47:30.605Z,99279.20
2023-03-04T04:50:03.316Z,99290.92
2023-03-04T04:52:36.488Z,99287.02
2023-03-04T04:55:09.307Z,99294.77
2023-03-04T04:57:42.520Z,99290.70
2023-03-04T05:00:15.584Z,99289.83
2023-03-04T05:02:48.817Z,99289.53
2023-03-04T05:05:21.774Z,99278.90
2023-03-04T05:07:55.633Z,99272.11
2023-03-04T05:10:28.059Z,99268.87
2023-03-04T05:13:00.560Z,99249.45
2023-03-04T05:15:34.164Z,99254.02
2023-03-04T05:18:19.338Z,99243.95
2023-03-04T05:20:55.061Z,99245.08
2023-03-04T05:23:27.874Z,99241.06
2023-03-04T05:26:00.274Z,99242.96
2023-03-04T05:28:32.820Z,99231.45
2023-03-04T05:31:05.986Z,99226.50
2023-03-04T05:33:38.797Z,99227.02
2023-03-04T05:36:11.417Z,99229.17
2023-03-04T05:38:44.364Z,99216.42
2023-03-04T05:41:18.659Z,99224.13
2023-03-04T05:43:52.040Z,99229.69
2023-03-04T05:46:26.068Z,99225.84
2023-03-04T05:48:58.534Z,99194.48
2023-03-04T05:51:31.245Z,99224.29
2023-03-04T05:54:03.866Z,99225.02
2023-03-04T05:56:37.291Z,99210.20
2023-03-04T05:59:09.838Z,99188.84
2023-03-04T06:01:42.803Z,99197.42
2023-03-04T06:04:15.418Z,99199.80
2023-03-04T06:06:48.866Z,99185.00
2023-03-04T06:09:22.531Z,99187.31
2023-03-04T06:11:55.409Z,99188.30
2023-03-04T06:14:28.883Z,99180.06
2023-03-04T06:17:01.798Z,99171.39
2023-03-04T06:19:34.242Z,99178.42
2023-03-04T06:22:07.834Z,99178.61
2023-03-04T06:24:40.727Z,99164.06
2023-03-04T06:27:14.031Z,99169.27
2023-03-04T06:29:46.813Z,99171.08
2023-03-04T06:32:19.674Z,99177.77
2023-03-04T06:34:52.413Z,99168.05
2023-03-04T06:37:25.288Z,99167.17
2023-03-04T06:39:58.352Z,99176.47
2023-03-04T06:42:30.781Z,99170.17
2023-03-04T06:45:03.711Z,99176.47
2023-03-04T06:47:36.891Z,99159.47
2023-03-04T06:50:12.215Z,99155.60
2023-03-04T06:52:44.573Z,99150.75
2023-03-04T06:55:18.570Z,99149.95
2023-03-04T06:57:51.756Z,99142.06
2023-03-04T07:00:24.777Z,99136.70
2023-03-04T07:02:57.299Z,99130.77
2023-03-04T07:05:30.879Z,99137.83
2023-03-04T07:08:04.120Z,99131.22
2023-03-04T07:10:37.274Z,99121.26
2023-03-04T07:13:10.960Z,99100.86
2023-03-04T07:15:44.036Z,99104.53
2023-03-04T07:18:17.023Z,99106.75
2023-03-04T07:20:51.107Z,99107.51
2023-03-04T07:23:24.312Z,99112.77
2023-03-04T07:25:59.366Z,99099.17
2023-03-04T07:28:31.784Z,99087.52
2023-03-04T07:31:32.893Z,99098.12
2023-03-04T07:34:08.618Z,99100.80
2023-03-04T07:36:41.901Z,99099.08
2023-03-04T07:39:14.858Z,99094.86
2023-03-04T07:41:48.384Z,99096.33
2023-03-04T07:44:21.531Z,99094.00
2023-03-04T07:46:54.475Z,99091.33
2023-03-04T07:49:26.974Z,99079.50
2023-03-04T07:51:59.841Z,99086.36
2023-03-04T07:54:32.189Z,99083.29
2023-03-04T07:57:04.612Z,99084.16
2023-03-04T07:59:37.589Z,99089.64
2023-03-04T08:02:11.569Z,99081.48
2023-03-04T08:04:44.655Z,99091.38
2023-03-04T08:07:17.323Z,99083.68
2023-03-04T08:09:50.531Z,99077.72
2023-03-04T08:12:25.087Z,99078.59
2023-03-04T08:14:57.665Z,99088.57
2023-03-04T08:17:31.472Z,99071.61
2023-03-04T08:20:04.421Z,99078.32
2023-03-04T08:22:37.666Z,99075.28
2023-03-04T08:25:11.152Z,99066.96
2023-03-04T08:27:44.859Z,99068.45
2023-03-04T08:30:18.752Z,99059.55
2023-03-04T08:32:53.054Z,99072.83
2023-03-04T08:35:25.586Z,99061.15
2023-03-04T08:37:59.693Z,99051.63
2023-03-04T08:40:33.558Z,99055.89
2023-03-04T08:43:06.744Z,99062.48
2023-03-04T08:45:40.411Z,99068.69
2023-03-04T08:48:13.576Z,99065.05
2023-03-04T08:50:47.567Z,99063.56
2023-03-04T08:53:20.509Z,99061.87
2023-03-04T08:55:54.323Z,99065.17
2023-03-04T08:58:26.926Z,99065.78
2023-03-04T09:01:01.440Z,99061.01
2023-03-04T09:03:34.609Z,99062.48
2023-03-04T09:06:08.088Z,99062.95
2023-03-04T09:08:41.122Z,99057.23
2023-03-04T09:11:14.469Z,99052.23
2023-03-04T09:13:47.629Z,99052.34
2023-03-04T09:16:21.787Z,99053.56
2023-03-04T09:18:54.112Z,99059.53
2023-03-04T09:21:28.043Z,99047.20
2023-03-04T09:24:00.503Z,99051.83
2023-03-04T09:26:33.330Z,99052.95
2023-03-04T09:29:06.754Z,99043.20
2023-03-04T09:31:39.747Z,99030.28
2023-03-04T09:34:12.600Z,99044.55
2023-03-04T09:36:45.320Z,99037.71
2023-03-04T09:39:19.497Z,99040.14
2023-03-04T09:41:56.734Z,99029.41
2023-03-04T09:44:51.483Z,99030.95
2023-03-04T09:47:25.564Z,99046.67
2023-03-04T09:50:04.192Z,99025.83
2023-03-04T09:53:11.744Z,99024.97
2023-03-04T09:55:47.778Z,99027.53
2023-03-04T09:58:59.736Z,99035.45
2023-03-04T10:01:46.172Z,99029.58
2023-03-04T10:04:52.821Z,99015.20
2023-03-04T10:07:29.443Z,99027.55
2023-03-04T10:10:15.693Z,99026.33
2023-03-04T10:12:48.972Z,99022.30
2023-03-04T10:15:41.710Z,99017.39
2023-03-04T10:18:23.827Z,99017.64
2023-03-04T10:21:01.495Z,99014.04
2023-03-04T10:23:37.797Z,99011.73
2023-03-04T10:26:21.009Z,99017.56
2023-03-04T10:28:53.328Z,99010.73
2023-03-04T10:31:37.986Z,99011.13
2023-03-04T10:34:13.133Z,99005.76
2023-03-04T10:37:03.258Z,99002.36
2023-03-04T10:39:42.660Z,99007.24
2023-03-04T10:42:22.753Z,99000.28
2023-03-04T10:44:58.761Z,98996.64
2023-03-04T10:47:55.604Z,98985.78
2023-03-04T10:50:29.228Z,98986.25
2023-03-04T10:53:01.717Z,98967.83
2023-03-04T10:55:45.771Z,98955.78
2023-03-04T10:58:19.428Z,98950.33
2023-03-04T11:01:07.189Z,98939.28
2023-03-04T11:03:40.951Z,98951.48
2023-03-04T11:06:23.132Z,98937.70
2023-03-04T11:08:58.988Z,98932.33
2023-03-04T11:11:46.174Z,98915.37
2023-03-04T11:14:31.134Z,98926.80
2023-03-04T11:17:04.605Z,98922.38
2023-03-04T11:19:41.113Z,98924.90
2023-03-04T11:22:17.376Z,98923.95
2023-03-04T11:25:06.452Z,98920.36
2023-03-04T11:27:48.607Z,98904.33
2023-03-04T11:30:38.010Z,98911.06
2023-03-04T11:33:37.238Z,98916.16
2023-03-04T11:36:20.380Z,98911.05
2023-03-04T11:38:53.629Z,98906.30
2023-03-04T11:41:40.073Z,98896.13
2023-03-04T11:44:13.677Z,98910.02
2023-03-04T11:46:53.888Z,98907.49
2023-03-04T11:49:52.148Z,98903.95
2023-03-04T11:53:00.298Z,98899.09
2023-03-04T11:55:43.582Z,98905.67
2023-03-04T11:58:48.409Z,98910.56
2023-03-04T12:01:35.330Z,98906.66
2023-03-04T12:04:29.325Z,98904.68
2023-03-04T12:07:30.859Z,98907.07
2023-03-04T12:10:33.052Z,98897.45
2023-03-04T12:13:46.807Z,98887.13
2023-03-04T12:16:52.606Z,98891.83
2023-03-04T12:20:13.121Z,98902.44
2023-03-04T12:22:59.879Z,98896.24
2023-03-04T12:26:02.135Z,98903.50
2023-03-04T12:29:18.402Z,98904.07
2023-03-04T12:32:00.676Z,98898.86
2023-03-04T12:35:05.336Z,98900.49
2023-03-04T12:38:04.020Z,98894.27
2023-03-04T12:41:19.483Z,98906.31
2023-03-04T12:44:08.771Z,98904.01
2023-03-04T12:47:09.927Z,98900.66
2023-03-04T12:50:32.233Z,98900.30
2023-03-04T12:53:41.480Z,98905.79
2023-03-04T12:56:24.543Z,98913.59
2023-03-04T12:58:56.817Z,98904.45
2023-03-04T13:02:09.323Z,98899.81
2023-03-04T13:05:05.678Z,98910.30
2023-03-04T13:07:46.549Z,98905.41
2023-03-04T13:10:21.852Z,98908.76
2023-03-04T13:12:59.403Z,98910.35
2023-03-04T13:15:39.187Z,98903.26
2023-03-04T13:18:35.163Z,98902.30
2023-03-04T13:21:28.985Z,98903.39
2023-03-04T13:24:05.120Z,98912.52
2023-03-04T13:26:37.558Z,98900.83
2023-03-04T13:29:24.472Z,98900.02
2023-03-04T13:32:07.897Z,98906.45
2023-03-04T13:34:54.147Z,98896.47
2023-03-04T13:37:37.298Z,98892.72
2023-03-04T13:40:35.738Z,98900.75
2023-03-04T13:43:29.923Z,98875.23
2023-03-04T13:46:28.018Z,98870.45
2023-03-04T13:49:03.959Z,98859.10
2023-03-04T13:51:44.184Z,98869.48
2023-03-04T13:54:31.988Z,98867.44
2023-03-04T13:57:20.302Z,98859.19
2023-03-04T13:59:58.625Z,98860.53
2023-03-04T14:02:32.091Z,98843.59
2023-03-04T14:05:04.419Z,98854.77
2023-03-04T14:07:38.234Z,98854.02
2023-03-04T14:10:16.733Z,98857.53
2023-03-04T14:12:55.702Z,98855.69
2023-03-04T14:15:29.856Z,98858.14
2023-03-04T14:18:06.920Z,98857.79
2023-03-04T14:20:42.798Z,98875.01
2023-03-04T14:23:33.412Z,98861.10
2023-03-04T14:26:15.162Z,98863.31
2023-03-04T14:28:52.759Z,98855.01
2023-03-04T14:31:30.922Z,98849.89
2023-03-04T14:34:04.351Z,98851.14
2023-03-04T14:36:37.464Z,98847.77
2023-03-04T14:39:13.939Z,98854.50
2023-03-04T14:41:47.285Z,98860.21
2023-03-04T14:44:39.254Z,98855.71
2023-03-04T14:47:39.379Z,98860.23
2023-03-04T14:50:20.657Z,98852.81
2023-03-04T14:53:11.863Z,98852.70
2023-03-04T14:56:04.566Z,98854.38
2023-03-04T14:58:39.185Z,98859.98
2023-03-04T15:01:24.424Z,98857.63
2023-03-04T15:04:09.604Z,98855.31
2023-03-04T15:06:50.846Z,98845.92
2023-03-04T15:09:26.648Z,98844.83
2023-03-04T15:12:06.108Z,98832.91
2023-03-04T15:14:54.710Z,98825.95
2023-03-04T15:17:42.733Z,98831.92
2023-03-04T15:20:23.587Z,98829.84
2023-03-04T15:23:02.956Z,98831.08
2023-03-04T15:25:35.569Z,98837.05
2023-03-04T15:28:12.413Z,98826.08
2023-03-04T15:30:44.967Z,98830.59
2023-03-04T15:33:20.791Z,98836.48
2023-03-04T15:35:59.495Z,98831.12
2023-03-04T15:38:31.888Z,98827.61
2023-03-04T15:41:05.177Z,98840.02
2023-03-04T15:43:37.721Z,98834.89
2023-03-04T15:46:12.783Z,98823.66
2023-03-04T15:48:45.919Z,98825.23
2023-03-04T15:51:23.774Z,98831.61
2023-03-04T15:53:57.997Z,98815.03
2023-03-04T15:56:34.814Z,98834.20
2023-03-04T15:59:13.872Z,98833.23
2023-03-04T16:01:46.873Z,98846.12
2023-03-04T16:04:19.335Z,98837.13
2023-03-04T16:06:51.765Z,98823.48
2023-03-04T16:09:24.343Z,98836.50
2023-03-04T16:11:58.527Z,98830.29
2023-03-04T16:14:31.293Z,98828.95
2023-03-04T16:17:03.760Z,98832.02
2023-03-04T16:19:36.173Z,98830.05
2023-03-04T16:22:10.595Z,98811.80
2023-03-04T16:24:43.738Z,98829.34
2023-03-04T16:27:16.947Z,98812.80
2023-03-04T16:29:49.532Z,98803.89
2023-03-04T16:32:21.974Z,98828.02
2023-03-04T16:34:54.587Z,98820.59
2023-03-04T16:37:27.037Z,98815.70
2023-03-04T16:40:00.407Z,98817.17
2023-03-04T16:42:34.759Z,98807.78
2023-03-04T16:45:07.731Z,98826.91
2023-03-04T16:47:40.159Z,98806.32
2023-03-04T16:50:23.872Z,98794.88
2023-03-04T16:52:57.977Z,98796.61
2023-03-04T16:55:31.156Z,98807.33
2023-03-04T16:58:05.476Z,98802.92
2023-03-04T17:00:40.026Z,98802.92
2023-03-04T17:03:12.727Z,98795.52
2023-03-04T17:05:45.596Z,98802.56
2023-03-04T17:08:18.803Z,98787.35
2023-03-04T17:10:52.761Z,98796.59
2023-03-04T17:13:25.749Z,98775.66
2023-03-04T17:16:04.409Z,98789.06
2023-03-04T17:18:37.784Z,98789.55
2023-03-04T17:21:13.570Z,98786.89
2023-03-04T17:23:46.082Z,98783.94
2023-03-04T17:26:20.186Z,98776.54
2023-03-04T17:28:52.853Z,98773.63
2023-03-04T17:31:25.329Z,98782.49
2023-03-04T17:33:58.463Z,98780.44
2023-03-04T17:36:30.964Z,98781.02
2023-03-04T17:39:05.435Z,98772.27
2023-03-04T17:41:38.732Z,98778.46
2023-03-04T17:44:12.356Z,98772.73
2023-03-04T17:46:45.875Z,98767.88
2023-03-04T17:49:18.434Z,98772.48
2023-03-04T17:51:51.660Z,98749.36
2023-03-04T17:54:24.179Z,98754.36
2023-03-04T17:56:56.543Z,98760.08
2023-03-04T17:59:29.074Z,98748.63
2023-03-04T18:02:02.876Z,98744.50
2023-03-04T18:04:36.392Z,98727.58
2023-03-04T18:07:09.751Z,98747.08
2023-03-04T18:09:44.632Z,98732.83
2023-03-04T18:12:17.063Z,98727.82
2023-03-04T18:14:50.218Z,98720.42
2023-03-04T18:17:22.936Z,98733.08
2023-03-04T18:19:56.820Z,98725.80
2023-03-04T18:22:29.323Z,98727.72
2023-03-04T18:25:02.297Z,98742.69
2023-03-04T18:27:35.652Z,98724.45
2023-03-04T18:30:15.864Z,98727.61
2023-03-04T18:32:52.254Z,98711.89
2023-03-04T18:35:23.305Z,98727.61
2023-03-04T18:37:56.676Z,98710.43
2023-03-04T18:40:29.750Z,98708.61
2023-03-04T18:43:03.078Z,98710.78
2023-03-04T18:45:36.943Z,98701.53
2023-03-04T18:48:09.511Z,98711.30
2023-03-04T18:50:43.172Z,98710.91
2023-03-04T18:53:16.434Z,98698.14
2023-03-04T18:55:49.228Z,98716.03
2023-03-04T18:58:21.652Z,98706.18
2023-03-04T19:00:54.963Z,98695.82
2023-03-04T19:03:27.408Z,98694.98
2023-03-04T19:06:00.565Z,98692.66
2023-03-04T19:08:33.647Z,98681.45
2023-03-04T19:11:07.452Z,98686.30
2023-03-04T19:13:40.573Z,98686.08
2023-03-04T19:16:13.463Z,98683.88
2023-03-04T19:18:45.928Z,98679.86
2023-03-04T19:21:19.294Z,98654.18
2023-03-04T19:23:51.826Z,98660.55
2023-03-04T19:26:24.867Z,98668.69
2023-03-04T19:28:57.323Z,98668.58
2023-03-04T19:31:29.774Z,98657.64
2023-03-04T19:34:02.576Z,98663.12
2023-03-04T19:36:35.161Z,98670.80
2023-03-04T19:39:07.654Z,98650.72
2023-03-04T19:41:41.248Z,98663.02
2023-03-04T19:44:14.833Z,98664.23
2023-03-04T19:46:48.211Z,98653.39
2023-03-04T19:49:21.388Z,98659.98
2023-03-04T19:51:54.433Z,98661.56
2023-03-04T19:54:26.745Z,98667.28
2023-03-04T19:56:59.899Z,98658.02
2023-03-04T19:59:32.963Z,98643.16
2023-03-04T20:02:05.933Z,98652.78
2023-03-04T20:04:38.850Z,98644.87
2023-03-04T20:07:12.726Z,98651.56
2023-03-04T20:09:46.350Z,98656.32
2023-03-04T20:12:19.178Z,98650.10
2023-03-04T20:14:52.525Z,98653.27
2023-03-04T20:17:25.354Z,98637.79
2023-03-04T20:19:57.817Z,98643.76
2023-03-04T20:22:30.578Z,98639.97
2023-03-04T20:25:02.912Z,98638.38
2023-03-04T20:27:36.880Z,98635.20
2023-03-04T20:30:10.970Z,98640.20
2023-03-04T20:32:43.171Z,98633.12
2023-03-04T20:35:15.981Z,98650.28
2023-03-04T20:37:48.479Z,98677.30
2023-03-04T20:40:21.541Z,98701.94
2023-03-04T20:42:54.146Z,98729.69
2023-03-04T20:45:26.554Z,98721.30
2023-03-04T20:47:59.255Z,98736.02
2023-03-04T20:50:32.280Z,98743.06
2023-03-04T20:53:04.932Z,98749.86
2023-03-04T20:55:37.266Z,98749.11
2023-03-04T20:58:09.840Z,98750.20
2023-03-04T21:00:42.270Z,98773.17
2023-03-04T21:03:15.263Z,98773.52
2023-03-04T21:05:48.444Z,98766.59
2023-03-04T21:08:20.764Z,98790.89
2023-03-04T21:10:53.302Z,98786.48
2023-03-04T21:13:27.318Z,98795.37
2023-03-04T21:16:00.832Z,98801.58
2023-03-04T21:18:33.742Z,98799.73
2023-03-04T21:21:16.961Z,98805.43
2023-03-04T21:23:52.980Z,98794.73
2023-03-04T21:26:25.726Z,98803.84
2023-03-04T21:28:58.722Z,98807.84
2023-03-04T21:31:32.345Z,98818.65
2023-03-04T21:34:04.933Z,98813.40
2023-03-04T21:36:37.350Z,98819.33
2023-03-04T21:39:16.608Z,98822.73
2023-03-04T21:41:49.542Z,98816.66
2023-03-04T21:44:28.772Z,98824.34
2023-03-04T21:47:00.725Z,98825.67
2023-03-04T21:49:33.382Z,98818.74
2023-03-04T21:52:06.540Z,98804.61
2023-03-04T21:54:39.401Z,98806.78
2023-03-04T21:57:13.648Z,98808.57
2023-03-04T21:59:45.999Z,98804.54
2023-03-04T22:02:21.385Z,98801.98
2023-03-04T22:04:54.490Z,98799.53
2023-03-04T22:07:26.776Z,98808.27
2023-03-04T22:09:59.884Z,98801.56
2023-03-04T22:12:33.376Z,98810.44
2023-03-04T22:15:06.933Z,98814.92
2023-03-04T22:17:39.686Z,98820.59
2023-03-04T22:20:14.833Z,98818.87
2023-03-04T22:22:48.891Z,98823.20
2023-03-04T22:25:21.340Z,98827.43
2023-03-04T22:27:53.783Z,98822.45
2023-03-04T22:30:26.202Z,98825.13
2023-03-04T22:32:58.651Z,98830.36
2023-03-04T22:35:31.325Z,98826.45
2023-03-04T22:38:03.786Z,98830.68
2023-03-04T22:40:36.796Z,98844.90
2023-03-04T22:43:09.340Z,98856.95
2023-03-04T22:45:41.837Z,98851.39
2023-03-04T22:48:14.720Z,98856.70
2023-03-04T22:50:47.431Z,98867.13
2023-03-04T22:53:20.243Z,98872.83
2023-03-04T22:55:57.665Z,98875.77
2023-03-04T22:58:30.745Z,98893.02
2023-03-04T23:01:04.438Z,98886.19
2023-03-04T23:03:37.940Z,98888.53
2023-03-04T23:06:16.822Z,98886.37
2023-03-04T23:08:50.986Z,98893.33
2023-03-04T23:11:37.029Z,98901.80
2023-03-04T23:14:09.642Z,98903.50
2023-03-04T23:16:44.505Z,98910.13
2023-03-04T23:19:17.972Z,98905.33
2023-03-04T23:21:51.280Z,98914.73
2023-03-04T23:24:25.706Z,98909.70
2023-03-04T23:26:57.734Z,98918.42
2023-03-04T23:29:29.887Z,98914.62
2023-03-04T23:32:02.233Z,98920.22
2023-03-04T23:34:36.775Z,98919.88
2023-03-04T23:37:09.105Z,98917.66
2023-03-04T23:39:41.605Z,98929.47
2023-03-04T23:42:14.466Z,98926.06
2023-03-04T23:44:46.964Z,98934.37
2023-03-04T23:47:19.295Z,98932.12
2023-03-04T23:49:51.908Z,98932.78
2023-03-04T23:52:24.401Z,98939.45
2023-03-04T23:54:56.857Z,98942.02
2023-03-04T23:57:29.110Z,98946.12
